Observation data for Denver City on 07/04/2020      Previous  Date  Next       Current Mesonet Observations  Soil Data  Daily Summary Page  Observations in Plain Language
KDVS 040500Z 11010KT 28/09 A3009 RMK A01 T02810086  RH  030%=      5-min Rain = 0
KDVS 040505Z 11010KT 28/09 A3009 RMK A01 T02810086  RH  030%=      5-min Rain = 0
KDVS 040510Z 12009KT 28/09 A3009 RMK A01 T02800086  RH  030%=      5-min Rain = 0
KDVS 040515Z 12009KT 28/09 A3009 RMK A01 T02790086  RH  031%=      5-min Rain = 0
KDVS 040520Z 12010KT 28/09 A3009 RMK A01 T02770087  RH  031%=      5-min Rain = 0
KDVS 040525Z 12011KT 28/09 A3009 RMK A01 T02760087  RH  031%=      5-min Rain = 0
KDVS 040530Z 12010KT 27/09 A3009 RMK A01 T02740087  RH  032%=      5-min Rain = 0
KDVS 040535Z 12010KT 27/09 A3009 RMK A01 T02710087  RH  032%=      5-min Rain = 0
KDVS 040540Z 12010KT 27/09 A3009 RMK A01 T02690087  RH  033%=      5-min Rain = 0
KDVS 040545Z 12009KT 27/09 A3009 RMK A01 T02670087  RH  033%=      5-min Rain = 0
KDVS 040550Z 13009KT 27/09 A3009 RMK A01 T02650087  RH  034%=      5-min Rain = 0
KDVS 040555Z 13009KT 26/09 A3009 RMK A01 T02630088  RH  034%=      5-min Rain = 0
KDVS 040600Z 13009KT 26/09 A3009 RMK A01 T02620088  RH  034%=      5-min Rain = 0
KDVS 040605Z 13008KT 26/09 A3009 RMK A01 T02590089  RH  035%=      5-min Rain = 0
KDVS 040610Z 13008KT 26/09 A3009 RMK A01 T02580090  RH  036%=      5-min Rain = 0
KDVS 040615Z 12007KT 26/09 A3009 RMK A01 T02560090  RH  036%=      5-min Rain = 0
KDVS 040620Z 12008KT 26/09 A3009 RMK A01 T02550091  RH  036%=      5-min Rain = 0
KDVS 040625Z 12007KT 25/09 A3009 RMK A01 T02530091  RH  037%=      5-min Rain = 0
KDVS 040630Z 13007KT 25/09 A3009 RMK A01 T02520091  RH  037%=      5-min Rain = 0
KDVS 040635Z 13006KT 25/09 A3009 RMK A01 T02500092  RH  038%=      5-min Rain = 0
KDVS 040640Z 13006KT 25/09 A3009 RMK A01 T02470092  RH  039%=      5-min Rain = 0
KDVS 040645Z 13006KT 24/09 A3009 RMK A01 T02430093  RH  040%=      5-min Rain = 0
KDVS 040650Z 12006KT 24/09 A3009 RMK A01 T02410093  RH  040%=      5-min Rain = 0
KDVS 040655Z 12006KT 24/09 A3009 RMK A01 T02380093  RH  041%=      5-min Rain = 0
KDVS 040700Z 12005KT 24/09 A3009 RMK A01 T02360093  RH  042%=      5-min Rain = 0
KDVS 040705Z 12005KT 23/09 A3009 RMK A01 T02330094  RH  042%=      5-min Rain = 0
KDVS 040710Z 12005KT 23/09 A3009 RMK A01 T02310094  RH  043%=      5-min Rain = 0
KDVS 040715Z 12006KT 23/09 A3009 RMK A01 T02290093  RH  043%=      5-min Rain = 0
KDVS 040720Z 13006KT 23/09 A3009 RMK A01 T02270093  RH  044%=      5-min Rain = 0
KDVS 040725Z 13007KT 23/09 A3009 RMK A01 T02250094  RH  045%=      5-min Rain = 0
KDVS 040730Z 13006KT 22/09 A3009 RMK A01 T02230094  RH  045%=      5-min Rain = 0
KDVS 040735Z 13006KT 22/09 A3009 RMK A01 T02220094  RH  045%=      5-min Rain = 0
KDVS 040740Z 14005KT 22/10 A3009 RMK A01 T02220095  RH  046%=      5-min Rain = 0
KDVS 040745Z 14005KT 22/10 A3009 RMK A01 T02230095  RH  045%=      5-min Rain = 0
KDVS 040750Z 14005KT 22/10 A3009 RMK A01 T02240095  RH  045%=      5-min Rain = 0
KDVS 040755Z 14005KT 22/10 A3009 RMK A01 T02230095  RH  045%=      5-min Rain = 0
KDVS 040800Z 13004KT 22/10 A3009 RMK A01 T02230096  RH  046%=      5-min Rain = 0
KDVS 040805Z 12004KT 22/10 A3009 RMK A01 T02230095  RH  046%=      5-min Rain = 0
KDVS 040810Z 12004KT 22/10 A3009 RMK A01 T02220095  RH  046%=      5-min Rain = 0
KDVS 040815Z 12004KT 22/10 A3009 RMK A01 T02230096  RH  046%=      5-min Rain = 0
KDVS 040820Z 12003KT 22/10 A301 RMK A01 T02230095  RH  045%=      5-min Rain = 0
KDVS 040825Z 14003KT 22/10 A3009 RMK A01 T02240096  RH  046%=      5-min Rain = 0
KDVS 040830Z 16002KT 22/09 A301 RMK A01 T02240094  RH  045%=      5-min Rain = 0
KDVS 040835Z 20003KT 22/09 A301 RMK A01 T02240093  RH  045%=      5-min Rain = 0
KDVS 040840Z 23003KT 23/09 A301 RMK A01 T02250093  RH  044%=      5-min Rain = 0
KDVS 040845Z 25004KT 23/09 A301 RMK A01 T02250092  RH  044%=      5-min Rain = 0
KDVS 040850Z 24004KT 22/09 A3009 RMK A01 T02240093  RH  044%=      5-min Rain = 0
KDVS 040855Z 22004KT 23/09 A3009 RMK A01 T02250094  RH  045%=      5-min Rain = 0
KDVS 040900Z 20004KT 23/09 A3009 RMK A01 T02270094  RH  044%=      5-min Rain = 0
KDVS 040905Z 19004KT 23/09 A3009 RMK A01 T02280094  RH  044%=      5-min Rain = 0
KDVS 040910Z 17004KT 23/09 A3009 RMK A01 T02270093  RH  044%=      5-min Rain = 0
KDVS 040915Z 17003KT 22/09 A3009 RMK A01 T02230094  RH  045%=      5-min Rain = 0
KDVS 040920Z 17002KT 22/09 A3009 RMK A01 T02210094  RH  046%=      5-min Rain = 0
KDVS 040925Z 23003KT 22/10 A3009 RMK A01 T02220096  RH  046%=      5-min Rain = 0
KDVS 040930Z 24004KT 22/09 A301 RMK A01 T02240094  RH  045%=      5-min Rain = 0
KDVS 040935Z 25005KT 23/09 A301 RMK A01 T02280094  RH  044%=      5-min Rain = 0
KDVS 040940Z 26004KT 23/10 A301 RMK A01 T02290095  RH  044%=      5-min Rain = 0
KDVS 040945Z 27005KT 23/10 A301 RMK A01 T02300096  RH  044%=      5-min Rain = 0
KDVS 040950Z 29006KT 23/09 A301 RMK A01 T02300094  RH  043%=      5-min Rain = 0
KDVS 040955Z 28006KT 23/10 A301 RMK A01 T02320095  RH  043%=      5-min Rain = 0
KDVS 041000Z 28005KT 23/10 A301 RMK A01 T02320096  RH  043%=      5-min Rain = 0
KDVS 041005Z 29005KT 23/10 A301 RMK A01 T02320098  RH  044%=      5-min Rain = 0
KDVS 041010Z 29006KT 23/10 A301 RMK A01 T02330102  RH  045%=      5-min Rain = 0
KDVS 041015Z 30006KT 23/10 A301 RMK A01 T02330103  RH  045%=      5-min Rain = 0
KDVS 041020Z 30006KT 23/10 A301 RMK A01 T02340103  RH  045%=      5-min Rain = 0
KDVS 041025Z 30006KT 23/10 A3011 RMK A01 T02340104  RH  045%=      5-min Rain = 0
KDVS 041030Z 31006KT 24/10 A3011 RMK A01 T02350104  RH  045%=      5-min Rain = 0
KDVS 041035Z 30007KT 24/10 A3011 RMK A01 T02360103  RH  044%=      5-min Rain = 0
KDVS 041040Z 29007KT 24/10 A3011 RMK A01 T02370104  RH  044%=      5-min Rain = 0
KDVS 041045Z 29006KT 24/10 A3011 RMK A01 T02380103  RH  044%=      5-min Rain = 0
KDVS 041050Z 29005KT 24/10 A3011 RMK A01 T02380104  RH  044%=      5-min Rain = 0
KDVS 041055Z 29006KT 24/11 A3012 RMK A01 T02370105  RH  045%=      5-min Rain = 0
KDVS 041100Z 30006KT 24/11 A3012 RMK A01 T02360107  RH  046%=      5-min Rain = 0
KDVS 041105Z 31007KT 24/11 A3012 RMK A01 T02350109  RH  047%=      5-min Rain = 0
KDVS 041110Z 31008KT 23/11 A3012 RMK A01 T02340112  RH  048%=      5-min Rain = 0
KDVS 041115Z 32008KT 23/12 A3012 RMK A01 T02340115  RH  049%=      5-min Rain = 0
KDVS 041120Z 32009KT 24/12 A3012 RMK A01 T02350118  RH  050%=      5-min Rain = 0
KDVS 041125Z 32009KT 24/12 A3012 RMK A01 T02350119  RH  050%=      5-min Rain = 0
KDVS 041130Z 33008KT 24/12 A3012 RMK A01 T02350121  RH  051%=      5-min Rain = 0
KDVS 041135Z 34007KT 24/12 A3012 RMK A01 T02350123  RH  051%=      5-min Rain = 0
KDVS 041140Z 35008KT 24/13 A3012 RMK A01 T02350125  RH  052%=      5-min Rain = 0
KDVS 041145Z 35007KT 24/13 A3011 RMK A01 T02350127  RH  053%=      5-min Rain = 0
KDVS 041150Z 35007KT 24/13 A3011 RMK A01 T02350129  RH  053%=      5-min Rain = 0
KDVS 041155Z 35005KT 24/13 A3012 RMK A01 T02360130  RH  053%=      5-min Rain = 0
KDVS 041200Z 35005KT 24/13 A3011 RMK A01 T02350129  RH  053%=      5-min Rain = 0
KDVS 041205Z 35006KT 24/13 A3011 RMK A01 T02360128  RH  053%=      5-min Rain = 0
KDVS 041210Z 36006KT 24/13 A3011 RMK A01 T02360125  RH  052%=      5-min Rain = 0
KDVS 041215Z 01006KT 24/12 A3011 RMK A01 T02370123  RH  051%=      5-min Rain = 0
KDVS 041220Z 01006KT 24/12 A3011 RMK A01 T02360120  RH  050%=      5-min Rain = 0
KDVS 041225Z 02005KT 24/12 A3011 RMK A01 T02350118  RH  050%=      5-min Rain = 0
KDVS 041230Z 03006KT 24/11 A3011 RMK A01 T02350114  RH  048%=      5-min Rain = 0
KDVS 041235Z 04007KT 24/11 A3011 RMK A01 T02360109  RH  047%=      5-min Rain = 0
KDVS 041240Z 04008KT 24/11 A3011 RMK A01 T02360107  RH  046%=      5-min Rain = 0
KDVS 041245Z 04009KT 24/11 A3012 RMK A01 T02370108  RH  046%=      5-min Rain = 0
KDVS 041250Z 03008KT 24/11 A3012 RMK A01 T02360113  RH  048%=      5-min Rain = 0
KDVS 041255Z 02008KT 24/12 A3013 RMK A01 T02370118  RH  049%=      5-min Rain = 0
KDVS 041300Z 02009KT 24/12 A3013 RMK A01 T02370122  RH  050%=      5-min Rain = 0
KDVS 041305Z 02009KT 24/12 A3013 RMK A01 T02380124  RH  051%=      5-min Rain = 0
KDVS 041310Z 02011KT 24/13 A3013 RMK A01 T02390126  RH  051%=      5-min Rain = 0
KDVS 041315Z 01010KT 24/13 A3013 RMK A01 T02410128  RH  051%=      5-min Rain = 0
KDVS 041320Z 01009KT 24/13 A3013 RMK A01 T02410130  RH  052%=      5-min Rain = 0
KDVS 041325Z 01010KT 24/13 A3013 RMK A01 T02430130  RH  051%=      5-min Rain = 0
KDVS 041330Z 01012KT 24/13 A3013 RMK A01 T02440131  RH  051%=      5-min Rain = 0
KDVS 041335Z 01011KT 24/13 A3013 RMK A01 T02430132  RH  052%=      5-min Rain = 0
KDVS 041340Z 01012KT 24/13 A3013 RMK A01 T02430133  RH  052%=      5-min Rain = 0
KDVS 041345Z 01012KT 24/13 A3013 RMK A01 T02440132  RH  052%=      5-min Rain = 0
KDVS 041350Z 01011G16KT 24/13 A3013 RMK A01 T02430132  RH  052%=      5-min Rain = 0
KDVS 041355Z 01011KT 24/13 A3014 RMK A01 T02440132  RH  052%=      5-min Rain = 0
KDVS 041400Z 01012KT 25/13 A3013 RMK A01 T02450132  RH  051%=      5-min Rain = 0
KDVS 041405Z 02013KT 25/13 A3013 RMK A01 T02450132  RH  052%=      5-min Rain = 0
KDVS 041410Z 02012KT 25/13 A3013 RMK A01 T02450133  RH  052%=      5-min Rain = 0
KDVS 041415Z 01011KT 25/14 A3013 RMK A01 T02450135  RH  052%=      5-min Rain = 0
KDVS 041420Z 00011KT 25/14 A3013 RMK A01 T02460135  RH  052%=      5-min Rain = 0
KDVS 041425Z 01011KT 25/14 A3013 RMK A01 T02470135  RH  052%=      5-min Rain = 0
KDVS 041430Z 00012KT 25/14 A3013 RMK A01 T02470135  RH  052%=      5-min Rain = 0
KDVS 041435Z 36010KT 25/14 A3014 RMK A01 T02490136  RH  052%=      5-min Rain = 0
KDVS 041440Z 36011KT 25/14 A3014 RMK A01 T02490136  RH  051%=      5-min Rain = 0
KDVS 041445Z 00011KT 25/14 A3014 RMK A01 T02520135  RH  050%=      5-min Rain = 0
KDVS 041450Z 00011KT 26/14 A3014 RMK A01 T02560135  RH  049%=      5-min Rain = 0
KDVS 041455Z 01011KT 26/13 A3014 RMK A01 T02570134  RH  048%=      5-min Rain = 0
KDVS 041500Z 01009KT 26/14 A3014 RMK A01 T02570136  RH  049%=      5-min Rain = 0
KDVS 041505Z 36008KT 26/14 A3014 RMK A01 T02580135  RH  048%=      5-min Rain = 0
KDVS 041510Z 00009KT 26/14 A3013 RMK A01 T02600135  RH  048%=      5-min Rain = 0
KDVS 041515Z 01008KT 26/14 A3013 RMK A01 T02640135  RH  047%=      5-min Rain = 0
KDVS 041520Z 01006KT 27/13 A3013 RMK A01 T02680133  RH  045%=      5-min Rain = 0
KDVS 041525Z 02006KT 27/13 A3013 RMK A01 T02720133  RH  044%=      5-min Rain = 0
KDVS 041530Z 34006KT 28/13 A3013 RMK A01 T02760130  RH  042%=      5-min Rain = 0
KDVS 041535Z 36006KT 28/13 A3013 RMK A01 T02750127  RH  042%=      5-min Rain = 0
KDVS 041540Z 01005KT 28/13 A3013 RMK A01 T02760127  RH  041%=      5-min Rain = 0
KDVS 041545Z 02006KT 28/13 A3013 RMK A01 T02760127  RH  041%=      5-min Rain = 0
KDVS 041550Z 00005KT 27/13 A3013 RMK A01 T02740128  RH  042%=      5-min Rain = 0
KDVS 041555Z 01006KT 27/12 A3013 RMK A01 T02730124  RH  041%=      5-min Rain = 0
KDVS 041600Z 34005KT 28/12 A3013 RMK A01 T02770121  RH  040%=      5-min Rain = 0
KDVS 041605Z 35004KT 28/12 A3013 RMK A01 T02790119  RH  038%=      5-min Rain = 0
KDVS 041610Z 35005KT 28/12 A3013 RMK A01 T02820120  RH  038%=      5-min Rain = 0
KDVS 041615Z 03004KT 29/12 A3012 RMK A01 T02860117  RH  037%=      5-min Rain = 0
KDVS 041620Z 02003KT 29/12 A3012 RMK A01 T02910119  RH  036%=      5-min Rain = 0
KDVS 041625Z 33003KT 29/12 A3012 RMK A01 T02920118  RH  035%=      5-min Rain = 0
KDVS 041630Z 32003KT 29/12 A3012 RMK A01 T02940117  RH  035%=      5-min Rain = 0
KDVS 041635Z 33003G8KT 30/12 A3012 RMK A01 T02990115  RH  033%=      5-min Rain = 0
KDVS 041640Z 01005KT 30/11 A3012 RMK A01 T03020114  RH  032%=      5-min Rain = 0
KDVS 041645Z 34004KT 30/11 A3012 RMK A01 T03010113  RH  032%=      5-min Rain = 0
KDVS 041650Z 36002KT 31/11 A3013 RMK A01 T03050111  RH  031%=      5-min Rain = 0
KDVS 041655Z 31005KT 31/11 A3012 RMK A01 T03060108  RH  030%=      5-min Rain = 0
KDVS 041700Z 26002KT 30/10 A3012 RMK A01 T03020104  RH  031%=      5-min Rain = 0
KDVS 041705Z 34003KT 30/11 A3012 RMK A01 T03040105  RH  030%=      5-min Rain = 0
KDVS 041710Z 33003G8KT 31/11 A3012 RMK A01 T03070105  RH  030%=      5-min Rain = 0
KDVS 041715Z 01004KT 31/11 A3012 RMK A01 T03100105  RH  029%=      5-min Rain = 0
KDVS 041720Z 29002KT 31/10 A3012 RMK A01 T03060102  RH  029%=      5-min Rain = 0
KDVS 041725Z 33004KT 31/10 A3011 RMK A01 T03070100  RH  029%=      5-min Rain = 0
KDVS 041730Z 03003KT 31/10 A3011 RMK A01 T03090099  RH  028%=      5-min Rain = 0
KDVS 041735Z 36004KT 31/10 A3011 RMK A01 T03110101  RH  028%=      5-min Rain = 0
KDVS 041740Z 00005KT 32/10 A3012 RMK A01 T03160101  RH  028%=      5-min Rain = 0
KDVS 041745Z 01005KT 32/10 A3011 RMK A01 T03160102  RH  028%=      5-min Rain = 0
KDVS 041750Z 06003KT 32/10 A3011 RMK A01 T03160101  RH  027%=      5-min Rain = 0
KDVS 041755Z 11003KT 32/10 A3011 RMK A01 T03150096  RH  027%=      5-min Rain = 0
KDVS 041800Z 13001KT 32/10 A3011 RMK A01 T03150095  RH  026%=      5-min Rain = 0
KDVS 041805Z 35003KT 32/10 A3011 RMK A01 T03180096  RH  026%=      5-min Rain = 0
KDVS 041810Z 34002KT 32/10 A3011 RMK A01 T03170097  RH  027%=      5-min Rain = 0
KDVS 041815Z 31002KT 32/10 A3011 RMK A01 T03200097  RH  026%=      5-min Rain = 0
KDVS 041820Z 32003KT 32/10 A301 RMK A01 T03240096  RH  025%=      5-min Rain = 0
KDVS 041825Z 32004KT 33/10 A301 RMK A01 T03260096  RH  025%=      5-min Rain = 0
KDVS 041830Z 01005KT 32/10 A301 RMK A01 T03240097  RH  026%=      5-min Rain = 0
KDVS 041835Z 28003KT 32/10 A301 RMK A01 T03190097  RH  026%=      5-min Rain = 0
KDVS 041840Z 27003KT 32/10 A301 RMK A01 T03210096  RH  026%=      5-min Rain = 0
KDVS 041845Z 02003KT 32/10 A301 RMK A01 T03210096  RH  026%=      5-min Rain = 0
KDVS 041850Z 14001KT 32/10 A301 RMK A01 T03240096  RH  025%=      5-min Rain = 0
KDVS 041855Z 33003KT 33/10 A3009 RMK A01 T03300096  RH  025%=      5-min Rain = 0
KDVS 041900Z 35006KT 33/10 A3009 RMK A01 T03310096  RH  024%=      5-min Rain = 0
KDVS 041905Z 32005KT 34/10 A3009 RMK A01 T03350096  RH  024%=      5-min Rain = 0
KDVS 041910Z 31003KT 33/10 A3009 RMK A01 T03310095  RH  024%=      5-min Rain = 0
KDVS 041915Z 18002G7KT 34/09 A3008 RMK A01 T03350090  RH  023%=      5-min Rain = 0
KDVS 041920Z 16008G13KT 35/09 A3008 RMK A01 T03460086  RH  021%=      5-min Rain = 0
KDVS 041925Z 14004G9KT 35/09 A3008 RMK A01 T03450087  RH  021%=      5-min Rain = 0
KDVS 041930Z 18005KT 35/09 A3008 RMK A01 T03470086  RH  021%=      5-min Rain = 0
KDVS 041935Z 14007KT 34/09 A3007 RMK A01 T03410087  RH  022%=      5-min Rain = 0
KDVS 041940Z 14004KT 34/09 A3007 RMK A01 T03350088  RH  023%=      5-min Rain = 0
KDVS 041945Z 15004KT 34/09 A3007 RMK A01 T03360088  RH  022%=      5-min Rain = 0
KDVS 041950Z 05003G11KT 34/09 A3007 RMK A01 T03440090  RH  022%=      5-min Rain = 0
KDVS 041955Z 08005G10KT 35/09 A3007 RMK A01 T03490090  RH  021%=      5-min Rain = 0
KDVS 042000Z 08007KT 35/09 A3006 RMK A01 T03490091  RH  021%=      5-min Rain = 0
KDVS 042005Z 11009G17KT 34/09 A3006 RMK A01 T03440089  RH  022%=      5-min Rain = 0
KDVS 042010Z 15008G13KT 34/09 A3006 RMK A01 T03400088  RH  022%=      5-min Rain = 0
KDVS 042015Z 14003KT 33/09 A3006 RMK A01 T03340089  RH  023%=      5-min Rain = 0
KDVS 042020Z 11007G14KT 34/09 A3006 RMK A01 T03400089  RH  022%=      5-min Rain = 0
KDVS 042025Z 09006KT 34/09 A3006 RMK A01 T03420090  RH  022%=      5-min Rain = 0
KDVS 042030Z 08006G11KT 34/09 A3005 RMK A01 T03390091  RH  023%=      5-min Rain = 0
KDVS 042035Z 08010G15KT 34/09 A3005 RMK A01 T03380090  RH  023%=      5-min Rain = 0
KDVS 042040Z 10009KT 34/09 A3005 RMK A01 T03410089  RH  022%=      5-min Rain = 0
KDVS 042045Z 06004G9KT 34/09 A3005 RMK A01 T03440086  RH  021%=      5-min Rain = 0
KDVS 042050Z 06007G12KT 35/09 A3004 RMK A01 T03490088  RH  021%=      5-min Rain = 0
KDVS 042055Z 10007KT 35/09 A3004 RMK A01 T03540086  RH  020%=      5-min Rain = 0
KDVS 042100Z 15008G13KT 35/08 A3004 RMK A01 T03520082  RH  020%=      5-min Rain = 0
KDVS 042105Z 12009KT 35/08 A3004 RMK A01 T03470082  RH  020%=      5-min Rain = 0
KDVS 042110Z 15002G7KT 34/08 A3004 RMK A01 T03430081  RH  021%=      5-min Rain = 0
KDVS 042115Z 10007KT 34/08 A3004 RMK A01 T03420081  RH  021%=      5-min Rain = 0
KDVS 042120Z 14008KT 34/08 A3003 RMK A01 T03400080  RH  021%=      5-min Rain = 0
KDVS 042125Z 13008G13KT 34/08 A3003 RMK A01 T03400081  RH  021%=      5-min Rain = 0
KDVS 042130Z 15010G16KT 35/08 A3003 RMK A01 T03450079  RH  020%=      5-min Rain = 0
KDVS 042135Z 18010KT 34/08 A3002 RMK A01 T03370079  RH  021%=      5-min Rain = 0
KDVS 042140Z 16008G15KT 34/08 A3002 RMK A01 T03380080  RH  021%=      5-min Rain = 0
KDVS 042145Z 16009G15KT 35/08 A3002 RMK A01 T03490079  RH  020%=      5-min Rain = 0
KDVS 042150Z 15006G13KT 35/08 A3002 RMK A01 T03490078  RH  019%=      5-min Rain = 0
KDVS 042155Z 10007G12KT 34/08 A3002 RMK A01 T03440080  RH  020%=      5-min Rain = 0
KDVS 042200Z 09005KT 35/08 A3001 RMK A01 T03450079  RH  020%=      5-min Rain = 0
KDVS 042205Z 08007KT 35/08 A3001 RMK A01 T03450080  RH  020%=      5-min Rain = 0
KDVS 042210Z 09007G12KT 35/08 A3001 RMK A01 T03500080  RH  019%=      5-min Rain = 0
KDVS 042215Z 11009G14KT 35/08 A3001 RMK A01 T03530078  RH  019%=      5-min Rain = 0
KDVS 042220Z 13008KT 35/08 A3001 RMK A01 T03510078  RH  019%=      5-min Rain = 0
KDVS 042225Z 12006G12KT 35/08 A30 RMK A01 T03510078  RH  019%=      5-min Rain = 0
KDVS 042230Z 12008G13KT 35/08 A30 RMK A01 T03530078  RH  019%=      5-min Rain = 0
KDVS 042235Z 10007KT 35/08 A30 RMK A01 T03490079  RH  020%=      5-min Rain = 0
KDVS 042240Z 08005KT 35/08 A30 RMK A01 T03490078  RH  019%=      5-min Rain = 0
KDVS 042245Z 07005G10KT 35/08 A2999 RMK A01 T03520078  RH  019%=      5-min Rain = 0
KDVS 042250Z 10007KT 35/08 A2999 RMK A01 T03510077  RH  019%=      5-min Rain = 0
KDVS 042255Z 12009KT 35/08 A2999 RMK A01 T03500078  RH  019%=      5-min Rain = 0
KDVS 042300Z 13010KT 35/08 A2999 RMK A01 T03500078  RH  019%=      5-min Rain = 0
KDVS 042305Z 12007G13KT 35/08 A2998 RMK A01 T03480078  RH  019%=      5-min Rain = 0
KDVS 042310Z 11008KT 35/08 A2998 RMK A01 T03490078  RH  019%=      5-min Rain = 0
KDVS 042315Z 11006KT 35/08 A2998 RMK A01 T03500078  RH  019%=      5-min Rain = 0
KDVS 042320Z 09004G9KT 35/08 A2997 RMK A01 T03480078  RH  019%=      5-min Rain = 0
KDVS 042325Z 08005G10KT 35/08 A2997 RMK A01 T03470077  RH  020%=      5-min Rain = 0
KDVS 042330Z 12003KT 35/08 A2997 RMK A01 T03500077  RH  019%=      5-min Rain = 0
KDVS 042335Z 13006KT 35/08 A2996 RMK A01 T03520077  RH  019%=      5-min Rain = 0
KDVS 042340Z 13004KT 35/08 A2996 RMK A01 T03520076  RH  019%=      5-min Rain = 0
KDVS 042345Z 16006KT 35/08 A2996 RMK A01 T03500076  RH  019%=      5-min Rain = 0
KDVS 042350Z 15004G9KT 35/08 A2996 RMK A01 T03470076  RH  019%=      5-min Rain = 0
KDVS 042355Z 16003G8KT 35/08 A2996 RMK A01 T03470076  RH  019%=      5-min Rain = 0
KDVS 050000Z 12005G11KT 35/08 A2996 RMK A01 T03460076  RH  019%=      5-min Rain = 0
KDVS 050005Z 15009G14KT 35/08 A2996 RMK A01 T03470078  RH  020%=      5-min Rain = 0
KDVS 050010Z 14006KT 35/08 A2996 RMK A01 T03470078  RH  020%=      5-min Rain = 0
KDVS 050015Z 12008KT 35/08 A2996 RMK A01 T03460078  RH  020%=      5-min Rain = 0
KDVS 050020Z 14008KT 34/08 A2997 RMK A01 T03440078  RH  020%=      5-min Rain = 0
KDVS 050025Z 15004KT 34/08 A2997 RMK A01 T03430078  RH  020%=      5-min Rain = 0
KDVS 050030Z 11004G9KT 34/08 A2997 RMK A01 T03440078  RH  020%=      5-min Rain = 0
KDVS 050035Z 09007KT 34/08 A2997 RMK A01 T03430078  RH  020%=      5-min Rain = 0
KDVS 050040Z 12006KT 34/08 A2997 RMK A01 T03400078  RH  020%=      5-min Rain = 0
KDVS 050045Z 10005KT 34/08 A2997 RMK A01 T03410077  RH  020%=      5-min Rain = 0
KDVS 050050Z 13008KT 34/08 A2997 RMK A01 T03430077  RH  020%=      5-min Rain = 0
KDVS 050055Z 12008KT 34/08 A2997 RMK A01 T03420077  RH  020%=      5-min Rain = 0
KDVS 050100Z 14006KT 34/08 A2997 RMK A01 T03410077  RH  020%=      5-min Rain = 0
KDVS 050105Z 14008KT 34/08 A2997 RMK A01 T03400077  RH  020%=      5-min Rain = 0
KDVS 050110Z 15009KT 34/08 A2997 RMK A01 T03370076  RH  021%=      5-min Rain = 0
KDVS 050115Z 15009KT 33/08 A2997 RMK A01 T03330075  RH  021%=      5-min Rain = 0
KDVS 050120Z 14008KT 33/08 A2997 RMK A01 T03310075  RH  021%=      5-min Rain = 0
KDVS 050125Z 12006KT 33/08 A2997 RMK A01 T03290075  RH  021%=      5-min Rain = 0
KDVS 050130Z 12007KT 33/08 A2998 RMK A01 T03260075  RH  022%=      5-min Rain = 0
KDVS 050135Z 13007KT 32/07 A2998 RMK A01 T03240074  RH  022%=      5-min Rain = 0
KDVS 050140Z 12006KT 32/07 A2998 RMK A01 T03230074  RH  022%=      5-min Rain = 0
KDVS 050145Z 13005KT 32/08 A2998 RMK A01 T03200075  RH  022%=      5-min Rain = 0
KDVS 050150Z 13005KT 32/08 A2998 RMK A01 T03150075  RH  023%=      5-min Rain = 0
KDVS 050155Z 12005KT 31/08 A2998 RMK A01 T03100076  RH  024%=      5-min Rain = 0
KDVS 050200Z 11006KT 31/08 A2998 RMK A01 T03050076  RH  025%=      5-min Rain = 0
KDVS 050205Z 11006KT 30/08 A2998 RMK A01 T03020076  RH  025%=      5-min Rain = 0
KDVS 050210Z 12006KT 30/08 A2999 RMK A01 T02990076  RH  025%=      5-min Rain = 0
KDVS 050215Z 13006KT 30/08 A2999 RMK A01 T02970076  RH  026%=      5-min Rain = 0
KDVS 050220Z 12006KT 29/08 A2999 RMK A01 T02940075  RH  026%=      5-min Rain = 0
KDVS 050225Z 12006KT 29/08 A2999 RMK A01 T02910075  RH  026%=      5-min Rain = 0
KDVS 050230Z 12006KT 29/08 A2999 RMK A01 T02880075  RH  027%=      5-min Rain = 0
KDVS 050235Z 12006KT 29/08 A2999 RMK A01 T02860075  RH  027%=      5-min Rain = 0
KDVS 050240Z 11006KT 28/08 A2999 RMK A01 T02840075  RH  028%=      5-min Rain = 0
KDVS 050245Z 11006KT 28/08 A2999 RMK A01 T02800076  RH  028%=      5-min Rain = 0
KDVS 050250Z 12007KT 28/08 A2999 RMK A01 T02770076  RH  029%=      5-min Rain = 0
KDVS 050255Z 12007KT 27/08 A2999 RMK A01 T02730076  RH  029%=      5-min Rain = 0
KDVS 050300Z 12006KT 27/08 A2999 RMK A01 T02700076  RH  030%=      5-min Rain = 0
KDVS 050305Z 12005KT 27/08 A30 RMK A01 T02690076  RH  030%=      5-min Rain = 0
KDVS 050310Z 12006KT 27/08 A30 RMK A01 T02700076  RH  030%=      5-min Rain = 0
KDVS 050315Z 12005KT 27/08 A30 RMK A01 T02690076  RH  030%=      5-min Rain = 0
KDVS 050320Z 12006KT 27/08 A30 RMK A01 T02670076  RH  030%=      5-min Rain = 0
KDVS 050325Z 12006KT 27/08 A30 RMK A01 T02690076  RH  030%=      5-min Rain = 0
KDVS 050330Z 12006KT 27/08 A30 RMK A01 T02690076  RH  030%=      5-min Rain = 0
KDVS 050335Z 11006KT 27/08 A30 RMK A01 T02670076  RH  030%=      5-min Rain = 0
KDVS 050340Z 11006KT 27/08 A30 RMK A01 T02660075  RH  031%=      5-min Rain = 0
KDVS 050345Z 11006KT 27/08 A30 RMK A01 T02660075  RH  031%=      5-min Rain = 0
KDVS 050350Z 12006KT 26/08 A30 RMK A01 T02640075  RH  031%=      5-min Rain = 0
KDVS 050355Z 12006KT 26/07 A30 RMK A01 T02610074  RH  031%=      5-min Rain = 0
KDVS 050400Z 13007KT 26/07 A30 RMK A01 T02570074  RH  032%=      5-min Rain = 0
KDVS 050405Z 13008KT 26/08 A30 RMK A01 T02560075  RH  032%=      5-min Rain = 0
KDVS 050410Z 14007KT 26/08 A30 RMK A01 T02560076  RH  033%=      5-min Rain = 0
KDVS 050415Z 14007KT 26/08 A30 RMK A01 T02550078  RH  033%=      5-min Rain = 0
KDVS 050420Z 14007KT 25/08 A30 RMK A01 T02530078  RH  034%=      5-min Rain = 0
KDVS 050425Z 14007KT 25/08 A30 RMK A01 T02510078  RH  034%=      5-min Rain = 0
KDVS 050430Z 14007KT 25/08 A2999 RMK A01 T02480080  RH  035%=      5-min Rain = 0
KDVS 050435Z 14007KT 25/08 A2999 RMK A01 T02470082  RH  036%=      5-min Rain = 0
KDVS 050440Z 13007KT 25/08 A2999 RMK A01 T02460082  RH  036%=      5-min Rain = 0
KDVS 050445Z 14007KT 24/08 A2999 RMK A01 T02440082  RH  037%=      5-min Rain = 0
KDVS 050450Z 14006KT 24/08 A2999 RMK A01 T02420082  RH  037%=      5-min Rain = 0
KDVS 050455Z 14007KT 24/08 A2999 RMK A01 T02410082  RH  037%=      5-min Rain = 0

Page generated in 0.0158 seconds.